Country
Station

 

Weather  for  Spartanburg Memorial  -  United States    United States

  
28 °C (82 °F)
    
 
 

Current METAR for Spartanburg Memorial is :

KSPA 191535Z AUTO 00000KT 7SM CLR 28/19 A3004 RMK AO2

 

This is a report for Spartanburg Memorial - United States.
 
The report was made 5 minutes ago, at 15:35 UTC .
The wind was calm.
 
The temperature was 28 °C (82 °F), with a dew-point at 19 °C (66 °F).
The temperature felt like 29 °C (84 °F).
 
The atmospheric pressure was 1017 hPa (30.04 inHg).
The relative humidity was 58.1%.
 
The sky was clear.
 
The overall visibility was 11.3 kilometers (7.0 miles).
 

 
 
 
 

Country :   A   B   C   D   E   F   G   H   I   J   K   L   M   N   O   P   Q   R   S   T   U   V   W   Y   Z

 

Site Info  |  Disclaimer  |  Credits  |  Privacy
Contact us  |  Add to favorites
© 2013-2018 METARs - All rights reserved